Time;durP1;ratioP1;P1;durP2;ratioP2;P2;SDS_P1;SDS_P2;PMS_P1;PMS_P2;Temp;Humidity;BMP_temperature;BMP_pressure;BME280_temperature;BME280_humidity;BME280_pressure;Samples;Min_cycle;Max_cycle;Signal;HPM_P1;HPM_P2
2021/10/10 00:00:17;;;;;;;12.75;6.60;;;13.00;98.30;;;;;;5092762;28;20051;-77
2021/10/10 00:02:42;;;;;;;11.75;5.88;;;13.00;98.30;;;;;;5091541;28;20028;-79
2021/10/10 00:05:08;;;;;;;13.93;6.78;;;13.00;98.30;;;;;;5092419;28;20036;-78
2021/10/10 00:07:34;;;;;;;15.25;7.30;;;13.00;98.30;;;;;;5091197;28;20035;-78
2021/10/10 00:10:00;;;;;;;13.15;6.47;;;13.00;98.20;;;;;;5074547;28;20032;-77
2021/10/10 00:12:25;;;;;;;12.98;6.95;;;13.00;98.20;;;;;;5091908;28;20055;-80
2021/10/10 00:14:51;;;;;;;11.63;6.93;;;13.00;98.10;;;;;;5092514;28;20441;-77
2021/10/10 00:17:17;;;;;;;12.95;6.43;;;12.90;98.10;;;;;;5092357;28;20111;-78
2021/10/10 00:19:43;;;;;;;13.38;6.50;;;12.90;98.10;;;;;;5092206;28;20038;-77
2021/10/10 00:22:08;;;;;;;10.07;6.00;;;12.80;98.10;;;;;;5092180;28;20035;-78
2021/10/10 00:24:34;;;;;;;12.23;6.60;;;12.80;98.20;;;;;;5091907;28;20024;-78
2021/10/10 00:27:00;;;;;;;15.50;7.43;;;12.70;98.20;;;;;;5090745;28;20450;-78
2021/10/10 00:29:26;;;;;;;13.35;6.65;;;12.70;98.30;;;;;;5090642;28;20107;-79
2021/10/10 00:31:51;;;;;;;12.27;6.75;;;12.70;98.40;;;;;;5090759;28;20466;-78
2021/10/10 00:34:17;;;;;;;16.80;6.80;;;12.70;98.50;;;;;;5073874;28;20035;-78
2021/10/10 00:36:43;;;;;;;12.27;6.47;;;12.70;98.50;;;;;;5090485;28;20666;-77
2021/10/10 00:39:10;;;;;;;12.77;6.53;;;12.70;98.50;;;;;;5090604;28;20513;-78
2021/10/10 00:41:36;;;;;;;12.00;6.60;;;12.60;98.40;;;;;;5090674;28;20031;-78
2021/10/10 00:44:09;;;;;;;14.82;6.97;;;12.60;98.40;;;;;;5090515;28;20166;-76
2021/10/10 00:46:35;;;;;;;14.13;7.50;;;12.60;98.50;;;;;;5090256;28;20025;-79
2021/10/10 00:49:01;;;;;;;22.77;10.85;;;12.50;98.40;;;;;;5090187;28;20394;-78
2021/10/10 00:51:31;;;;;;;16.63;9.15;;;12.50;98.50;;;;;;5090441;28;20070;-77
2021/10/10 00:53:58;;;;;;;17.77;8.88;;;12.40;98.50;;;;;;5092026;28;20012;-79
2021/10/10 00:56:25;;;;;;;14.43;8.00;;;12.40;98.60;;;;;;5091553;28;20338;-77
2021/10/10 00:58:51;;;;;;;16.20;8.25;;;12.30;98.60;;;;;;5091693;28;20020;-79
2021/10/10 01:01:17;;;;;;;16.88;8.45;;;12.30;98.60;;;;;;5090337;28;20478;-78
2021/10/10 01:03:42;;;;;;;15.88;8.30;;;12.20;98.60;;;;;;5090737;28;20108;-76
2021/10/10 01:06:08;;;;;;;16.50;8.95;;;12.20;98.70;;;;;;5091392;28;20028;-80
2021/10/10 01:08:34;;;;;;;20.85;9.23;;;12.10;98.70;;;;;;5091410;28;20032;-79
2021/10/10 01:11:00;;;;;;;19.88;10.02;;;12.10;98.80;;;;;;5073363;28;20535;-77
2021/10/10 01:13:25;;;;;;;23.20;11.68;;;12.10;98.80;;;;;;5090280;28;20047;-80
2021/10/10 01:15:51;;;;;;;25.40;11.57;;;12.10;98.90;;;;;;5091286;28;20389;-78
2021/10/10 01:18:22;;;;;;;23.95;12.13;;;12.20;99.00;;;;;;5073193;28;20038;-76
2021/10/10 01:20:48;;;;;;;25.67;12.38;;;12.10;99.00;;;;;;5089908;28;20063;-78
2021/10/10 01:23:15;;;;;;;31.50;14.77;;;12.20;99.00;;;;;;5089857;28;20390;-77
2021/10/10 01:25:41;;;;;;;29.83;14.65;;;12.10;99.00;;;;;;5090374;28;20565;-79
2021/10/10 01:28:07;;;;;;;33.28;14.65;;;12.10;99.00;;;;;;5089566;28;20028;-79
2021/10/10 01:30:33;;;;;;;;;;;12.10;99.10;;;;;;5091302;28;20042;-77
2021/10/10 01:32:59;;;;;;;24.85;11.90;;;12.10;99.10;;;;;;5089629;28;20453;-78
2021/10/10 01:35:25;;;;;;;18.92;9.52;;;12.20;99.10;;;;;;5091018;28;20031;-78
2021/10/10 01:37:51;;;;;;;16.00;8.68;;;12.20;99.10;;;;;;5090824;28;20478;-80
2021/10/10 01:40:16;;;;;;;17.33;8.25;;;12.20;99.20;;;;;;5072873;28;20157;-76
2021/10/10 01:42:42;;;;;;;12.60;7.18;;;12.30;99.10;;;;;;5091145;28;20090;-79
2021/10/10 01:45:20;;;;;;;14.90;8.15;;;12.40;99.10;;;;;;5091063;28;20032;-78
2021/10/10 01:47:45;;;;;;;16.40;8.68;;;12.40;99.10;;;;;;5089573;28;20394;-78
2021/10/10 01:50:11;;;;;;;15.05;7.90;;;12.50;99.20;;;;;;5089784;28;20027;-77
2021/10/10 01:52:40;;;;;;;15.25;8.60;;;12.60;99.20;;;;;;5091348;28;20359;-79
2021/10/10 01:55:06;;;;;;;32.05;20.75;;;12.70;99.20;;;;;;5090885;28;20531;-80
2021/10/10 01:57:31;;;;;;;54.03;37.00;;;12.80;99.10;;;;;;5089721;28;20570;-79
2021/10/10 01:59:57;;;;;;;24.77;14.27;;;13.00;99.00;;;;;;5089734;28;20115;-77
2021/10/10 02:02:23;;;;;;;21.17;12.95;;;13.10;98.80;;;;;;5089759;28;20077;-78
2021/10/10 02:04:48;;;;;;;15.10;9.07;;;13.10;98.70;;;;;;5072740;28;20032;-78
2021/10/10 02:07:14;;;;;;;22.42;13.02;;;13.20;98.80;;;;;;5089510;28;20020;-79
2021/10/10 02:09:44;;;;;;;16.63;9.52;;;13.10;98.40;;;;;;5090878;28;20516;-77
2021/10/10 02:12:09;;;;;;;16.42;9.60;;;13.20;98.40;;;;;;5089653;28;20065;-79
2021/10/10 02:14:36;;;;;;;19.60;11.38;;;13.10;98.40;;;;;;5089638;28;20032;-79
2021/10/10 02:17:03;;;;;;;19.48;10.77;;;13.10;98.30;;;;;;5090764;28;20028;-79
2021/10/10 02:19:29;;;;;;;16.95;9.98;;;13.10;98.30;;;;;;5072666;28;20051;-77
2021/10/10 02:21:55;;;;;;;17.40;9.82;;;13.00;98.20;;;;;;5072639;28;20032;-79
2021/10/10 02:24:21;;;;;;;20.10;9.93;;;12.90;98.30;;;;;;5090758;28;20028;-79
2021/10/10 02:26:47;;;;;;;18.63;10.10;;;12.80;98.30;;;;;;5091141;28;20025;-78
2021/10/10 02:29:13;;;;;;;19.08;10.63;;;12.80;98.40;;;;;;5089336;28;20044;-78
2021/10/10 02:31:42;;;;;;;;;;;12.70;98.40;;;;;;5089986;28;20048;-78
2021/10/10 02:34:13;;;;;;;23.13;11.00;;;12.60;98.40;;;;;;5090677;28;19912;-78
2021/10/10 02:36:41;;;;;;;22.45;10.65;;;12.60;98.30;;;;;;5075597;28;20078;-78
2021/10/10 02:39:07;;;;;;;24.48;12.07;;;12.50;98.40;;;;;;5094807;28;20310;-79
2021/10/10 02:41:33;;;;;;;26.00;12.40;;;12.50;98.50;;;;;;5092986;28;20023;-80
2021/10/10 02:43:59;;;;;;;31.67;12.63;;;12.40;98.60;;;;;;5094249;28;20028;-77
2021/10/10 02:46:26;;;;;;;40.33;13.80;;;12.40;98.60;;;;;;5093956;28;20032;-78
2021/10/10 02:48:51;;;;;;;38.50;12.55;;;12.40;98.70;;;;;;5094334;28;20420;-80
2021/10/10 02:51:17;;;;;;;45.67;14.63;;;12.40;98.70;;;;;;5092817;28;20032;-77
2021/10/10 02:53:43;;;;;;;58.60;15.77;;;12.30;98.80;;;;;;5092842;28;20069;-77
2021/10/10 02:56:08;;;;;;;41.33;12.98;;;12.40;98.80;;;;;;5093862;28;20043;-78
2021/10/10 02:58:34;;;;;;;68.38;17.42;;;12.30;98.80;;;;;;5092558;28;20024;-79
2021/10/10 03:01:00;;;;;;;62.20;16.27;;;12.30;98.80;;;;;;5093815;28;20488;-76
2021/10/10 03:03:26;;;;;;;43.05;14.30;;;12.30;98.80;;;;;;5093881;28;20039;-77
2021/10/10 03:05:52;;;;;;;50.05;14.52;;;12.30;98.90;;;;;;5075625;28;20089;-78
2021/10/10 03:08:18;;;;;;;36.28;13.57;;;12.30;98.90;;;;;;5092546;28;20108;-77
2021/10/10 03:10:43;;;;;;;37.63;12.55;;;12.30;98.90;;;;;;5075579;28;20032;-77
2021/10/10 03:13:09;;;;;;;32.20;13.10;;;12.40;99.00;;;;;;5092497;28;20024;-80
2021/10/10 03:15:36;;;;;;;35.78;12.23;;;12.30;98.90;;;;;;5092246;28;20025;-78
2021/10/10 03:18:02;;;;;;;29.80;11.88;;;12.30;98.90;;;;;;5093591;28;20028;-78
2021/10/10 03:20:28;;;;;;;;;;;12.30;98.80;;;;;;5092810;28;20028;-77
2021/10/10 03:22:54;;;;;;;25.33;10.77;;;12.40;98.90;;;;;;5092324;28;19908;-77
2021/10/10 03:25:19;;;;;;;24.85;11.48;;;12.30;98.80;;;;;;5093350;28;20032;-79
2021/10/10 03:27:45;;;;;;;22.00;10.55;;;12.40;98.90;;;;;;5075052;28;20089;-78
2021/10/10 03:30:11;;;;;;;23.88;10.05;;;12.40;98.90;;;;;;5092108;28;20524;-79
2021/10/10 03:32:37;;;;;;;18.92;8.85;;;12.40;99.00;;;;;;5075143;28;20067;-78
2021/10/10 03:35:04;;;;;;;25.08;9.82;;;12.50;99.10;;;;;;5093184;28;20069;-79
2021/10/10 03:37:29;;;;;;;22.75;9.98;;;12.60;99.10;;;;;;5093108;28;20115;-78
2021/10/10 03:39:56;;;;;;;21.48;9.77;;;12.60;99.00;;;;;;5093108;28;20111;-79
2021/10/10 03:42:22;;;;;;;28.35;10.57;;;12.70;99.00;;;;;;5093040;28;20024;-78
2021/10/10 03:44:48;;;;;;;18.27;9.02;;;12.70;99.00;;;;;;5093058;28;20028;-77
2021/10/10 03:47:15;;;;;;;20.10;8.85;;;12.80;99.00;;;;;;5090447;28;20464;-79
2021/10/10 03:49:42;;;;;;;19.63;8.30;;;12.80;98.90;;;;;;5091555;28;20461;-78
2021/10/10 03:52:09;;;;;;;31.75;10.27;;;12.90;98.90;;;;;;5093351;28;20028;-76
2021/10/10 03:57:01;;;;;;;34.65;10.52;;;12.90;98.70;;;;;;5092907;28;20513;-79
2021/10/10 03:59:26;;;;;;;63.88;12.25;;;12.90;98.70;;;;;;5091602;28;20032;-77
2021/10/10 04:01:52;;;;;;;47.85;11.38;;;12.90;98.60;;;;;;5092830;28;20024;-78
2021/10/10 04:04:18;;;;;;;39.05;9.65;;;12.80;98.50;;;;;;5091432;28;20024;-79
2021/10/10 04:06:44;;;;;;;26.45;8.20;;;12.70;98.40;;;;;;5091193;28;20066;-78
2021/10/10 04:09:09;;;;;;;28.85;9.10;;;12.70;98.40;;;;;;5091139;28;20050;-78
2021/10/10 04:11:35;;;;;;;31.48;8.77;;;12.60;98.40;;;;;;5091331;28;20467;-79
2021/10/10 04:14:00;;;;;;;26.67;7.82;;;12.50;98.40;;;;;;5091084;28;20032;-76
2021/10/10 04:16:26;;;;;;;14.65;6.10;;;12.40;98.40;;;;;;5092642;28;20069;-77
2021/10/10 04:18:52;;;;;;;26.25;7.30;;;12.30;98.50;;;;;;5091140;28;20079;-78
2021/10/10 04:21:17;;;;;;;25.55;6.95;;;12.30;98.60;;;;;;5092425;28;20036;-80
2021/10/10 04:23:43;;;;;;;22.48;6.40;;;12.30;98.60;;;;;;5074076;28;20575;-79
2021/10/10 04:26:09;;;;;;;36.63;6.82;;;12.30;98.60;;;;;;5092221;28;20051;-78
2021/10/10 04:28:34;;;;;;;35.00;6.95;;;12.30;98.70;;;;;;5090911;28;20032;-77
2021/10/10 04:31:00;;;;;;;36.75;7.30;;;12.30;98.60;;;;;;5074014;28;20536;-77
2021/10/10 04:33:26;;;;;;;24.35;5.85;;;12.30;98.60;;;;;;5092258;28;20447;-80
2021/10/10 04:35:51;;;;;;;47.17;8.23;;;12.30;98.60;;;;;;5057181;28;20039;-78
2021/10/10 04:38:17;;;;;;;32.20;7.60;;;12.30;98.60;;;;;;5090789;28;20563;-78
2021/10/10 04:40:45;;;;;;;38.47;6.25;;;12.30;98.50;;;;;;5092150;28;20036;-76
2021/10/10 04:43:10;;;;;;;48.90;6.63;;;12.30;98.40;;;;;;5090773;28;20371;-79
2021/10/10 04:45:36;;;;;;;28.20;5.28;;;12.30;98.40;;;;;;5090585;28;20032;-77
2021/10/10 04:48:02;;;;;;;46.45;6.88;;;12.30;98.30;;;;;;5090386;28;20051;-76
2021/10/10 04:50:28;;;;;;;;;;;12.20;98.30;;;;;;5091133;28;20028;-77
2021/10/10 04:52:54;;;;;;;72.78;9.85;;;12.20;98.40;;;;;;5090629;28;20320;-76
2021/10/10 04:55:19;;;;;;;53.38;7.00;;;12.20;98.30;;;;;;5073763;28;20055;-77
2021/10/10 04:57:45;;;;;;;50.58;7.45;;;12.20;98.40;;;;;;5090590;28;20032;-79
2021/10/10 05:00:12;;;;;;;42.15;7.15;;;12.20;98.50;;;;;;5073537;28;20024;-77
2021/10/10 05:02:37;;;;;;;43.13;6.90;;;12.20;98.50;;;;;;5091779;28;20478;-78
2021/10/10 05:05:04;;;;;;;33.70;6.68;;;12.20;98.50;;;;;;5092029;28;20043;-79
2021/10/10 05:07:29;;;;;;;;;;;12.20;98.70;;;;;;5092332;28;20035;-77
2021/10/10 05:09:55;;;;;;;37.50;6.13;;;12.20;98.50;;;;;;5090685;28;19908;-79
2021/10/10 05:12:21;;;;;;;35.95;7.35;;;12.30;98.40;;;;;;5091621;28;20050;-78
2021/10/10 05:14:47;;;;;;;36.53;8.93;;;12.30;98.40;;;;;;5091872;28;20563;-78
2021/10/10 05:17:12;;;;;;;31.67;7.22;;;12.20;98.40;;;;;;5073205;28;20036;-78
2021/10/10 05:19:38;;;;;;;38.80;7.88;;;12.20;98.40;;;;;;5090297;28;20085;-78
2021/10/10 05:22:04;;;;;;;26.83;6.60;;;12.20;98.50;;;;;;5091448;28;20024;-77
2021/10/10 05:24:31;;;;;;;19.02;6.53;;;12.20;98.50;;;;;;5090597;28;20032;-77
2021/10/10 05:26:58;;;;;;;18.02;6.32;;;12.30;98.60;;;;;;5091517;28;20059;-77
2021/10/10 05:29:24;;;;;;;23.45;7.30;;;12.30;98.50;;;;;;5090442;28;20047;-79
2021/10/10 05:31:50;;;;;;;29.10;7.88;;;12.30;98.50;;;;;;5056654;28;20024;-78
2021/10/10 05:34:15;;;;;;;27.52;6.88;;;12.30;98.50;;;;;;5091689;28;20032;-78
2021/10/10 05:36:41;;;;;;;22.90;7.47;;;12.30;98.60;;;;;;5090173;28;20055;-78
2021/10/10 05:39:07;;;;;;;31.35;6.68;;;12.30;98.50;;;;;;5056604;28;20040;-79
2021/10/10 05:41:32;;;;;;;25.90;6.72;;;12.30;98.50;;;;;;5090157;28;20493;-78
2021/10/10 05:43:59;;;;;;;20.13;6.00;;;12.30;98.60;;;;;;5089892;28;20367;-79
2021/10/10 05:46:25;;;;;;;19.75;6.00;;;12.30;98.70;;;;;;5091095;28;20035;-76
2021/10/10 05:48:50;;;;;;;26.50;6.22;;;12.30;98.80;;;;;;5091395;28;20052;-78
2021/10/10 05:51:16;;;;;;;18.40;6.38;;;12.40;98.90;;;;;;5091125;28;20033;-78
2021/10/10 05:53:42;;;;;;;22.30;6.80;;;12.40;98.90;;;;;;5089971;28;20470;-79
2021/10/10 05:56:08;;;;;;;24.00;6.28;;;12.40;98.80;;;;;;5090978;28;20043;-78
2021/10/10 05:58:39;;;;;;;21.58;6.13;;;12.50;98.80;;;;;;5091091;28;20378;-79
2021/10/10 06:01:05;;;;;;;27.33;6.60;;;12.50;98.80;;;;;;5073671;28;20494;-77
2021/10/10 06:03:31;;;;;;;28.05;6.20;;;12.50;98.90;;;;;;5089703;28;20038;-79
2021/10/10 06:05:57;;;;;;;28.33;6.35;;;12.60;98.80;;;;;;5090757;28;20386;-77
2021/10/10 06:08:22;;;;;;;21.35;5.70;;;12.60;98.80;;;;;;5089389;28;20036;-78
2021/10/10 06:10:48;;;;;;;18.92;4.85;;;12.60;98.70;;;;;;5091910;28;20036;-79
2021/10/10 06:13:14;;;;;;;17.63;4.90;;;12.60;98.70;;;;;;5093566;28;20021;-78
2021/10/10 06:15:40;;;;;;;21.25;4.80;;;12.50;98.60;;;;;;5094691;28;20066;-79
2021/10/10 06:18:09;;;;;;;18.05;5.13;;;12.50;98.70;;;;;;5094680;28;20020;-79
2021/10/10 06:20:36;;;;;;;15.18;4.88;;;12.50;98.70;;;;;;5093307;28;20048;-78
2021/10/10 06:23:03;;;;;;;12.85;5.13;;;12.50;98.70;;;;;;5093342;28;20474;-80
2021/10/10 06:25:28;;;;;;;19.27;4.32;;;12.50;98.70;;;;;;5094547;28;20482;-78
2021/10/10 06:27:54;;;;;;;20.77;5.45;;;12.50;98.60;;;;;;5076226;28;20020;-79
2021/10/10 06:30:20;;;;;;;22.30;4.50;;;12.60;98.60;;;;;;5094409;28;20115;-78
2021/10/10 06:32:45;;;;;;;21.27;4.60;;;12.50;98.50;;;;;;5094758;28;20036;-79
2021/10/10 06:35:11;;;;;;;18.90;5.65;;;12.60;98.60;;;;;;5059534;28;20556;-77
2021/10/10 06:37:37;;;;;;;20.48;5.63;;;12.60;98.60;;;;;;5093024;28;20051;-81
2021/10/10 06:40:03;;;;;;;12.23;5.15;;;12.50;98.60;;;;;;5076233;28;20510;-79
2021/10/10 06:42:29;;;;;;;18.52;5.38;;;12.60;98.60;;;;;;5093269;28;20433;-79
2021/10/10 06:44:54;;;;;;;22.15;6.18;;;12.60;98.60;;;;;;5075966;28;20028;-78
2021/10/10 06:47:20;;;;;;;19.90;5.60;;;12.60;98.60;;;;;;5093731;28;20089;-79
2021/10/10 06:49:46;;;;;;;15.18;4.43;;;12.60;98.60;;;;;;5092608;28;20028;-77
2021/10/10 06:52:13;;;;;;;12.68;4.38;;;12.60;98.60;;;;;;5076355;28;20394;-79
2021/10/10 06:54:39;;;;;;;16.83;4.82;;;12.70;98.60;;;;;;5076411;28;20031;-79
2021/10/10 06:57:05;;;;;;;13.07;4.47;;;12.60;98.60;;;;;;5092863;28;20486;-78
2021/10/10 06:59:31;;;;;;;12.73;4.68;;;12.60;98.70;;;;;;5094292;28;20035;-76
2021/10/10 07:01:56;;;;;;;14.10;4.72;;;12.60;98.60;;;;;;5093995;28;20028;-78
2021/10/10 07:04:22;;;;;;;12.90;3.65;;;12.60;98.60;;;;;;5092809;28;20047;-80
2021/10/10 07:06:48;;;;;;;14.65;4.70;;;12.60;98.50;;;;;;5094210;28;20046;-79
2021/10/10 07:09:13;;;;;;;20.27;5.20;;;12.60;98.50;;;;;;5093075;28;20066;-79
2021/10/10 07:11:39;;;;;;;12.15;4.13;;;12.60;98.50;;;;;;5093531;28;20032;-80
2021/10/10 07:14:06;;;;;;;11.68;3.70;;;12.60;98.50;;;;;;5094126;28;20429;-79
2021/10/10 07:16:34;;;;;;;17.70;4.43;;;12.70;98.50;;;;;;5092201;28;20055;-79
2021/10/10 07:19:00;;;;;;;11.82;4.00;;;12.60;98.40;;;;;;5093488;28;20024;-80
2021/10/10 07:26:37;;;;;;;18.38;4.07;;;12.70;98.40;;;;;;5093610;28;20034;-79
2021/10/10 07:29:04;;;;;;;14.18;4.13;;;12.70;98.40;;;;;;5093252;28;20028;-78
2021/10/10 07:31:30;;;;;;;13.27;3.70;;;12.70;98.30;;;;;;5075516;28;20028;-79
2021/10/10 07:33:55;;;;;;;16.55;4.13;;;12.70;98.30;;;;;;5094013;28;20073;-77
2021/10/10 07:36:21;;;;;;;15.25;4.28;;;12.70;98.20;;;;;;5095319;28;20028;-78
2021/10/10 07:38:47;;;;;;;20.50;4.57;;;12.80;98.20;;;;;;5096359;28;20036;-76
2021/10/10 07:41:13;;;;;;;15.75;4.22;;;12.80;98.20;;;;;;5096067;28;20047;-77
2021/10/10 07:43:40;;;;;;;10.02;3.75;;;12.90;98.30;;;;;;5079979;28;20031;-77
2021/10/10 07:46:09;;;;;;;12.95;4.10;;;12.90;98.30;;;;;;5095300;28;20043;-80
2021/10/10 07:48:35;;;;;;;9.77;2.80;;;13.00;98.20;;;;;;5060395;28;20094;-76
2021/10/10 07:51:01;;;;;;;8.43;2.90;;;13.00;98.10;;;;;;5092957;28;20036;-79
2021/10/10 07:53:27;;;;;;;14.10;3.08;;;13.00;98.10;;;;;;5092875;28;20030;-79
2021/10/10 07:55:52;;;;;;;11.27;2.92;;;13.00;98.10;;;;;;5094318;28;20020;-77
2021/10/10 07:58:18;;;;;;;7.57;2.80;;;13.10;98.20;;;;;;5093598;28;20135;-77
2021/10/10 08:00:44;;;;;;;9.38;3.13;;;13.10;98.10;;;;;;5092467;28;20032;-80
2021/10/10 08:03:09;;;;;;;10.02;3.70;;;13.10;98.10;;;;;;5075043;28;20131;-78
2021/10/10 08:05:40;;;;;;;15.88;4.60;;;13.20;98.10;;;;;;5093227;28;20055;-78
2021/10/10 08:08:06;;;;;;;11.13;3.67;;;13.30;98.00;;;;;;5093996;28;20115;-77
2021/10/10 08:10:32;;;;;;;;;;;13.30;97.80;;;;;;5094929;28;20024;-78
2021/10/10 08:12:58;;;;;;;10.10;3.40;;;13.30;97.70;;;;;;5094109;28;19911;-79
2021/10/10 08:15:24;;;;;;;5.32;2.15;;;13.30;97.50;;;;;;5092697;28;20036;-79
2021/10/10 08:17:50;;;;;;;8.52;2.38;;;13.30;97.50;;;;;;5092891;28;20546;-80
2021/10/10 08:20:16;;;;;;;8.13;3.20;;;13.30;97.50;;;;;;5091272;28;20532;-79
2021/10/10 08:22:42;;;;;;;18.70;4.72;;;13.40;97.40;;;;;;5092925;28;20033;-78
2021/10/10 08:25:11;;;;;;;15.60;4.90;;;13.40;97.40;;;;;;5092743;28;20450;-76
2021/10/10 08:27:38;;;;;;;16.63;4.97;;;13.40;97.30;;;;;;5092100;28;20062;-77
2021/10/10 08:30:08;;;;;;;12.23;3.55;;;13.40;97.10;;;;;;5093999;28;20024;-78
2021/10/10 08:32:34;;;;;;;8.48;2.45;;;13.30;97.00;;;;;;5074289;28;20024;-77
2021/10/10 08:34:59;;;;;;;10.55;3.42;;;13.20;97.00;;;;;;5091540;28;20043;-79
2021/10/10 08:37:25;;;;;;;7.15;2.35;;;13.20;97.00;;;;;;5091959;28;20039;-78
2021/10/10 08:39:51;;;;;;;11.45;2.20;;;13.20;97.20;;;;;;5092257;28;20153;-77
2021/10/10 08:42:22;;;;;;;7.10;2.08;;;13.30;97.30;;;;;;5091798;28;20024;-78
2021/10/10 08:44:50;;;;;;;8.73;2.25;;;13.40;96.90;;;;;;5091876;28;20047;-77
2021/10/10 08:47:17;;;;;;;6.10;2.20;;;13.40;96.80;;;;;;5091279;28;20031;-79
2021/10/10 08:49:44;;;;;;;17.33;2.72;;;13.50;96.70;;;;;;5091411;28;20326;-78
2021/10/10 08:52:11;;;;;;;7.80;2.55;;;13.50;96.70;;;;;;5091381;28;20028;-78
2021/10/10 08:54:38;;;;;;;7.10;1.80;;;13.50;96.70;;;;;;5090109;28;20089;-78
2021/10/10 08:57:08;;;;;;;9.07;1.60;;;13.60;96.60;;;;;;5091020;28;20020;-75
2021/10/10 08:59:38;;;;;;;9.52;2.97;;;13.70;96.50;;;;;;5091356;28;20020;-78
2021/10/10 09:02:10;;;;;;;6.60;2.13;;;13.80;96.30;;;;;;5089657;28;20028;-78
2021/10/10 09:04:39;;;;;;;11.23;2.58;;;13.80;96.20;;;;;;5089850;28;20458;-77
2021/10/10 09:07:05;;;;;;;11.05;1.85;;;13.90;96.20;;;;;;5089432;28;20059;-79
2021/10/10 09:09:32;;;;;;;9.05;1.90;;;14.00;96.30;;;;;;5072512;28;20063;-75
2021/10/10 09:12:04;;;;;;;8.63;1.80;;;14.00;96.10;;;;;;5091032;28;20120;-77
2021/10/10 09:14:46;;;;;;;5.97;1.80;;;14.10;95.90;;;;;;5089622;28;20024;-78
2021/10/10 09:17:17;;;;;;;9.48;2.10;;;14.20;95.70;;;;;;5089515;28;20024;-77
2021/10/10 09:20:01;;;;;;;16.55;5.55;;;14.20;95.60;;;;;;5089378;28;20432;-76
2021/10/10 09:22:27;;;;;;;7.53;2.33;;;14.20;95.50;;;;;;5090915;28;20050;-75
2021/10/10 09:24:56;;;;;;;;;;;14.30;95.60;;;;;;5091131;28;20054;-78
2021/10/10 09:27:26;;;;;;;7.20;2.33;;;14.30;95.70;;;;;;5089470;28;20379;-77
2021/10/10 09:29:53;;;;;;;10.18;2.42;;;14.40;95.80;;;;;;5090748;28;20035;-77
2021/10/10 09:32:24;;;;;;;7.57;1.92;;;14.50;95.70;;;;;;5089521;28;20052;-77
2021/10/10 09:34:50;;;;;;;10.40;2.30;;;14.80;95.60;;;;;;5090804;28;20020;-78
2021/10/10 09:37:22;;;;;;;;;;;14.80;95.30;;;;;;5089770;28;20068;-77
2021/10/10 09:42:56;;;;;;;9.35;1.90;;;15.10;95.20;;;;;;5090943;28;20103;-79
2021/10/10 09:45:30;;;;;;;6.60;1.92;;;15.10;94.90;;;;;;5090127;28;20036;-77
2021/10/10 09:48:00;;;;;;;9.00;2.28;;;15.10;94.60;;;;;;5093146;28;20058;-77
2021/10/10 09:50:28;;;;;;;7.90;2.13;;;15.10;94.40;;;;;;5093278;28;20060;-79
2021/10/10 09:53:08;;;;;;;10.20;2.78;;;15.20;94.30;;;;;;5094880;28;20382;-76
2021/10/10 09:55:37;;;;;;;9.55;3.42;;;15.20;94.10;;;;;;5094348;28;20034;-77
2021/10/10 09:58:03;;;;;;;14.25;5.03;;;15.20;94.00;;;;;;5094309;28;20358;-78
2021/10/10 10:00:35;;;;;;;14.82;5.47;;;15.20;93.90;;;;;;5093159;28;20099;-76
2021/10/10 10:03:11;;;;;;;18.40;6.70;;;15.10;93.70;;;;;;5093080;28;20085;-77
2021/10/10 10:05:38;;;;;;;17.13;6.63;;;15.10;93.60;;;;;;5092788;28;20038;-77
2021/10/10 10:08:05;;;;;;;13.25;6.35;;;15.20;93.60;;;;;;5094209;28;20481;-77
2021/10/10 10:10:33;;;;;;;14.00;4.90;;;15.20;93.50;;;;;;5092886;28;20048;-77
2021/10/10 10:13:01;;;;;;;16.95;5.05;;;15.20;93.40;;;;;;5094902;28;20038;-78
2021/10/10 10:15:29;;;;;;;13.88;5.35;;;15.20;93.40;;;;;;5094308;28;20702;-79
2021/10/10 10:17:56;;;;;;;11.65;4.45;;;15.20;93.30;;;;;;5094294;28;20111;-77
2021/10/10 10:20:24;;;;;;;11.13;4.63;;;15.20;93.30;;;;;;5094081;28;20031;-77
2021/10/10 10:22:54;;;;;;;12.70;4.75;;;15.20;93.10;;;;;;5093891;28;20032;-77
2021/10/10 10:25:26;;;;;;;12.90;5.60;;;15.10;93.00;;;;;;5094107;28;20030;-78
2021/10/10 10:27:53;;;;;;;12.95;6.40;;;15.20;93.10;;;;;;5092633;28;20579;-76
2021/10/10 10:30:22;;;;;;;14.55;6.88;;;15.20;93.00;;;;;;5093780;28;20144;-77
2021/10/10 10:32:48;;;;;;;15.57;6.70;;;15.30;93.00;;;;;;5092477;28;20474;-77
2021/10/10 10:35:20;;;;;;;12.82;5.53;;;15.30;92.90;;;;;;5094001;28;20028;-79
2021/10/10 10:37:49;;;;;;;13.15;5.22;;;15.40;92.90;;;;;;5092970;28;20077;-77
2021/10/10 10:40:14;;;;;;;9.43;3.90;;;15.50;92.80;;;;;;5094608;28;20482;-77
2021/10/10 10:42:42;;;;;;;12.38;3.70;;;15.60;92.90;;;;;;5094112;28;20032;-75
2021/10/10 10:45:25;;;;;;;8.57;3.05;;;15.70;92.90;;;;;;5094153;28;20086;-76
2021/10/10 10:47:53;;;;;;;13.75;3.70;;;15.90;92.60;;;;;;5091595;28;20064;-77
2021/10/10 10:50:23;;;;;;;9.45;4.20;;;16.10;92.40;;;;;;5092843;28;20017;-77
2021/10/10 10:53:03;;;;;;;15.55;5.03;;;16.10;92.20;;;;;;5092539;28;20028;-74
2021/10/10 10:55:42;;;;;;;14.40;4.43;;;16.10;92.30;;;;;;5093177;28;20397;-77
2021/10/10 10:58:12;;;;;;;11.60;4.15;;;16.30;92.40;;;;;;5092528;28;20031;-76
2021/10/10 11:00:45;;;;;;;8.60;3.72;;;16.40;92.00;;;;;;5092436;28;20071;-76
2021/10/10 11:03:11;;;;;;;11.32;3.00;;;16.50;91.80;;;;;;5093374;28;20024;-76
2021/10/10 11:06:04;;;;;;;9.73;2.67;;;16.70;91.70;;;;;;5091925;28;20028;-75
2021/10/10 11:08:36;;;;;;;7.53;3.22;;;16.70;91.30;;;;;;5090678;28;20095;-76
2021/10/10 11:11:24;;;;;;;11.60;3.85;;;16.70;91.20;;;;;;5094126;28;20050;-75
2021/10/10 11:14:02;;;;;;;10.90;2.80;;;16.90;91.10;;;;;;5094275;28;20043;-75
2021/10/10 11:16:32;;;;;;;11.02;3.10;;;17.00;90.70;;;;;;5075467;28;20024;-76
2021/10/10 11:19:05;;;;;;;10.55;2.70;;;17.10;90.40;;;;;;5090881;28;20462;-76
2021/10/10 11:21:36;;;;;;;11.07;2.28;;;17.40;90.90;;;;;;5093458;28;20031;-77
2021/10/10 11:24:05;;;;;;;5.45;2.33;;;18.10;90.30;;;;;;5093949;28;20024;-77
2021/10/10 11:26:36;;;;;;;8.00;2.50;;;18.60;89.40;;;;;;5092388;28;20028;-76
2021/10/10 11:29:10;;;;;;;7.93;2.15;;;19.30;89.80;;;;;;5092790;28;20206;-75
2021/10/10 11:31:37;;;;;;;7.90;2.17;;;20.30;87.00;;;;;;5092663;28;20441;-74
2021/10/10 11:34:05;;;;;;;9.90;2.47;;;20.60;85.10;;;;;;5094044;28;20091;-77
2021/10/10 11:36:41;;;;;;;11.48;1.75;;;20.50;82.80;;;;;;5091328;28;20016;-75
2021/10/10 11:39:10;;;;;;;7.57;1.70;;;20.40;82.20;;;;;;5090564;28;20035;-77
2021/10/10 11:41:46;;;;;;;8.43;1.92;;;20.30;81.70;;;;;;5090301;28;20025;-76
2021/10/10 11:44:16;;;;;;;10.63;2.58;;;20.20;81.80;;;;;;5092084;28;20028;-76
2021/10/10 11:46:46;;;;;;;5.63;2.10;;;20.60;82.60;;;;;;5092611;28;20374;-77
2021/10/10 11:49:33;;;;;;;9.00;3.13;;;21.30;82.30;;;;;;5051981;28;1163508;-75
2021/10/10 11:52:08;;;;;;;;;;;22.00;79.60;;;;;;5092894;28;20046;-77
2021/10/10 11:54:43;;;;;;;10.75;1.90;;;22.80;80.30;;;;;;5092833;28;19908;-78
2021/10/10 11:57:10;;;;;;;7.93;2.33;;;23.20;78.20;;;;;;5092498;28;20021;-76
2021/10/10 11:59:57;;;;;;;13.13;2.80;;;23.10;74.30;;;;;;5092333;28;20114;-75
2021/10/10 12:02:25;;;;;;;19.23;10.35;;;22.70;73.00;;;;;;5091301;28;20080;-77
2021/10/10 12:05:11;;;;;;;12.65;3.10;;;22.30;73.50;;;;;;5090367;28;20043;-76
2021/10/10 12:07:39;;;;;;;9.45;2.10;;;22.10;73.10;;;;;;5091776;28;20028;-76
2021/10/10 12:10:07;;;;;;;12.50;2.47;;;21.90;72.70;;;;;;5089799;28;20028;-75
2021/10/10 12:12:33;;;;;;;11.52;2.45;;;21.70;72.60;;;;;;5092220;28;20020;-75
2021/10/10 12:14:59;;;;;;;10.05;2.40;;;21.90;73.10;;;;;;5092585;28;20016;-77
2021/10/10 12:17:36;;;;;;;7.00;2.30;;;22.30;72.60;;;;;;5092810;28;20027;-76
2021/10/10 12:20:28;;;;;;;10.80;2.22;;;22.70;71.40;;;;;;5092752;28;20051;-77
2021/10/10 12:22:54;;;;;;;6.93;2.10;;;23.10;70.90;;;;;;5093083;28;20043;-76
2021/10/10 12:25:24;;;;;;;11.93;2.00;;;23.40;69.80;;;;;;5092879;28;20082;-76
2021/10/10 12:28:05;;;;;;;9.63;1.92;;;23.10;68.50;;;;;;5093462;28;20046;-78
2021/10/10 12:30:56;;;;;;;7.35;1.77;;;23.10;69.40;;;;;;5093364;28;20024;-76
2021/10/10 12:33:21;;;;;;;10.77;2.95;;;23.40;69.90;;;;;;5082869;28;20068;-76
2021/10/10 12:35:57;;;;;;;7.07;1.85;;;23.70;69.70;;;;;;5091672;28;20073;-76
2021/10/10 12:38:42;;;;;;;11.38;1.90;;;23.90;67.60;;;;;;5093110;28;20097;-75
2021/10/10 12:41:21;;;;;;;9.43;2.25;;;24.10;66.90;;;;;;5092822;28;20031;-75
2021/10/10 12:43:49;;;;;;;9.30;1.80;;;24.40;66.10;;;;;;5092309;28;20020;-76
2021/10/10 12:46:16;;;;;;;12.45;2.20;;;24.50;65.20;;;;;;5091657;28;20028;-74
2021/10/10 12:48:43;;;;;;;13.45;1.90;;;24.60;64.60;;;;;;5090776;28;20468;-75
2021/10/10 12:51:18;;;;;;;11.02;2.17;;;24.80;64.60;;;;;;5090919;28;20122;-76
2021/10/10 12:53:46;;;;;;;11.77;2.00;;;24.90;63.20;;;;;;5092516;28;20519;-75